createdAt,value
2019-02-17T00:01:03.259Z,64.43
2019-02-17T00:06:07.131Z,59.57
2019-02-17T00:11:10.971Z,56.20
2019-02-17T00:16:14.939Z,57.43
2019-02-17T00:21:18.736Z,54.33
2019-02-17T00:26:22.642Z,61.17
2019-02-17T00:31:26.588Z,53.47
2019-02-17T00:36:30.561Z,55.17
2019-02-17T00:41:34.386Z,59.23
2019-02-17T00:46:38.419Z,53.93
2019-02-17T00:51:43.721Z,55.47
2019-02-17T00:56:47.760Z,57.10
2019-02-17T01:01:51.737Z,53.87
2019-02-17T01:06:55.533Z,55.60
2019-02-17T01:11:59.311Z,58.23
2019-02-17T01:17:03.161Z,62.20
2019-02-17T01:22:07.059Z,60.47
2019-02-17T01:27:10.904Z,60.80
2019-02-17T01:32:14.710Z,60.67
2019-02-17T01:37:18.601Z,55.93
2019-02-17T01:42:22.472Z,56.90
2019-02-17T01:47:26.291Z,52.73
2019-02-17T01:52:30.305Z,56.73
2019-02-17T01:57:34.101Z,60.67
2019-02-17T02:02:37.983Z,57.77
2019-02-17T02:07:41.885Z,58.73
2019-02-17T02:12:45.795Z,57.47
2019-02-17T02:17:49.627Z,52.60
2019-02-17T02:22:53.439Z,54.73
2019-02-17T02:27:57.363Z,57.97
2019-02-17T02:33:01.266Z,54.27
2019-02-17T02:38:07.145Z,52.30
2019-02-17T02:43:10.945Z,55.50
2019-02-17T02:48:14.827Z,59.97
2019-02-17T02:53:18.787Z,58.03
2019-02-17T02:58:22.592Z,59.00
2019-02-17T03:03:26.385Z,57.93
2019-02-17T03:08:30.203Z,54.37
2019-02-17T03:13:34.179Z,54.43
2019-02-17T03:18:38.010Z,53.07
2019-02-17T03:23:41.978Z,55.27
2019-02-17T03:28:45.796Z,53.60
2019-02-17T03:33:49.673Z,51.37
2019-02-17T03:38:53.479Z,52.93
2019-02-17T03:43:57.438Z,56.37
2019-02-17T03:49:01.312Z,51.03
2019-02-17T03:54:05.887Z,58.17
2019-02-17T03:59:09.819Z,65.50
2019-02-17T04:04:13.734Z,60.57
2019-02-17T04:09:17.518Z,58.47
2019-02-17T04:14:21.546Z,56.23
2019-02-17T04:19:25.342Z,56.77
2019-02-17T04:24:29.250Z,49.93
2019-02-17T04:29:33.206Z,48.60
2019-02-17T04:34:37.009Z,51.57
2019-02-17T04:39:40.799Z,49.10
2019-02-17T04:44:45.038Z,55.97
2019-02-17T04:49:48.842Z,50.70
2019-02-17T04:54:52.662Z,48.97
2019-02-17T04:59:56.546Z,53.93
2019-02-17T05:05:00.434Z,51.63
2019-02-17T05:10:04.290Z,47.93
2019-02-17T05:15:08.521Z,55.73
2019-02-17T05:20:12.372Z,47.37
2019-02-17T05:25:16.171Z,50.77
2019-02-17T05:30:20.027Z,51.13
2019-02-17T05:35:24.069Z,50.77
2019-02-17T05:40:27.884Z,47.27
2019-02-17T05:45:31.702Z,48.60
2019-02-17T05:50:35.519Z,51.20
2019-02-17T05:55:39.440Z,47.13
2019-02-17T06:00:43.495Z,52.77
2019-02-17T06:05:47.311Z,44.93
2019-02-17T06:10:51.110Z,50.07
2019-02-17T06:15:54.945Z,52.80
2019-02-17T06:20:59.171Z,47.03
2019-02-17T06:26:03.297Z,46.97
2019-02-17T06:31:14.072Z,47.00
2019-02-17T06:36:12.651Z,46.60
2019-02-17T06:41:16.700Z,47.37
2019-02-17T06:46:24.739Z,50.23
2019-02-17T06:51:28.777Z,46.10
2019-02-17T06:56:46.131Z,48.73
2019-02-17T07:01:50.109Z,45.07
2019-02-17T07:07:01.489Z,45.70
2019-02-17T07:12:05.374Z,49.80
2019-02-17T07:17:09.329Z,48.13
2019-02-17T07:22:13.239Z,43.87
2019-02-17T07:27:17.128Z,44.63
2019-02-17T07:32:20.969Z,45.57
2019-02-17T07:37:33.150Z,39.77
2019-02-17T07:42:30.483Z,38.57
2019-02-17T07:47:34.449Z,41.40
2019-02-17T07:52:38.324Z,43.43
2019-02-17T07:57:42.139Z,39.13
2019-02-17T08:02:46.025Z,40.20
2019-02-17T08:07:49.909Z,44.80
2019-02-17T08:12:53.975Z,40.97
2019-02-17T08:17:57.992Z,48.63
2019-02-17T08:23:01.976Z,42.07
2019-02-17T08:28:05.798Z,43.67
2019-02-17T08:33:09.890Z,38.43
2019-02-17T08:38:13.913Z,39.03
2019-02-17T08:43:18.088Z,42.50
2019-02-17T08:48:22.578Z,37.60
2019-02-17T08:53:26.448Z,33.60
2019-02-17T08:58:30.426Z,38.77
2019-02-17T09:03:34.491Z,38.50
2019-02-17T09:08:38.658Z,38.90
2019-02-17T09:13:42.627Z,36.97
2019-02-17T09:18:49.228Z,36.57
2019-02-17T09:23:53.393Z,38.10
2019-02-17T09:28:57.320Z,35.40
2019-02-17T09:34:01.309Z,34.57
2019-02-17T09:39:08.284Z,35.90
2019-02-17T09:44:12.212Z,35.93
2019-02-17T09:49:16.103Z,35.07
2019-02-17T09:54:20.248Z,41.27
2019-02-17T09:59:24.488Z,36.50
2019-02-17T10:04:28.359Z,35.07
2019-02-17T10:09:32.264Z,34.67
2019-02-17T10:14:36.153Z,38.47
2019-02-17T10:19:40.211Z,33.80
2019-02-17T10:24:44.100Z,31.42
2019-02-17T10:29:47.985Z,32.73
2019-02-17T10:34:51.855Z,34.53
2019-02-17T10:39:55.922Z,37.15
2019-02-17T10:44:59.726Z,34.20
2019-02-17T10:50:03.761Z,33.53
2019-02-17T10:55:07.780Z,39.33
2019-02-17T11:00:13.737Z,35.48
2019-02-17T11:05:17.567Z,33.70
2019-02-17T11:10:21.410Z,30.35
2019-02-17T11:15:25.386Z,33.10
2019-02-17T11:20:29.222Z,31.33
2019-02-17T11:25:33.120Z,35.33
2019-02-17T11:30:37.024Z,28.85
2019-02-17T11:35:40.924Z,32.53
2019-02-17T11:40:44.869Z,36.45
2019-02-17T11:45:49.285Z,30.32
2019-02-17T11:50:53.270Z,31.97
2019-02-17T11:55:57.377Z,32.60
2019-02-17T12:01:01.298Z,39.35
2019-02-17T12:06:05.209Z,36.25
2019-02-17T12:11:09.179Z,33.33
2019-02-17T12:16:13.051Z,30.82
2019-02-17T12:21:38.808Z,32.42
2019-02-17T12:26:49.787Z,37.80
2019-02-17T12:31:53.860Z,35.03
2019-02-17T12:36:57.879Z,33.85
2019-02-17T12:42:01.804Z,34.45
2019-02-17T12:47:05.775Z,32.88
2019-02-17T12:52:09.632Z,36.40
2019-02-17T12:57:13.617Z,38.60
2019-02-17T13:02:17.529Z,41.20
2019-02-17T13:07:21.551Z,41.05
2019-02-17T13:12:25.564Z,43.15
2019-02-17T13:17:29.569Z,39.65
2019-02-17T13:22:33.532Z,44.83
2019-02-17T13:27:37.833Z,40.35
2019-02-17T13:32:41.881Z,40.75
2019-02-17T13:37:45.704Z,41.90
2019-02-17T13:42:49.645Z,37.95
2019-02-17T13:47:53.535Z,44.90
2019-02-17T13:52:57.427Z,41.23
2019-02-17T13:58:01.286Z,40.15
2019-02-17T14:03:05.107Z,42.05
2019-02-17T14:08:08.997Z,37.13
2019-02-17T14:13:12.987Z,37.60
2019-02-17T14:18:16.790Z,34.43
2019-02-17T14:23:23.934Z,34.40
2019-02-17T14:28:27.849Z,32.38
2019-02-17T14:33:31.684Z,38.95
2019-02-17T14:38:35.718Z,37.30
2019-02-17T14:43:39.670Z,35.10
2019-02-17T14:48:43.563Z,32.13
2019-02-17T14:53:47.591Z,36.77
2019-02-17T14:58:51.491Z,31.33
2019-02-17T15:03:55.347Z,37.38
2019-02-17T15:08:59.431Z,33.00
2019-02-17T15:14:03.457Z,34.50
2019-02-17T15:19:07.569Z,31.05
2019-02-17T15:24:11.456Z,30.88
2019-02-17T15:29:15.371Z,33.00
2019-02-17T15:34:19.195Z,34.50
2019-02-17T15:39:23.019Z,33.83
2019-02-17T15:44:27.019Z,29.07
2019-02-17T15:49:31.013Z,31.42
2019-02-17T15:54:34.999Z,35.35
2019-02-17T15:59:39.420Z,33.78
2019-02-17T16:04:45.045Z,28.87
2019-02-17T16:09:52.071Z,37.83
2019-02-17T16:14:56.425Z,30.72
2019-02-17T16:20:00.305Z,36.15
2019-02-17T16:25:04.581Z,31.77
2019-02-17T16:30:11.389Z,34.90
2019-02-17T16:35:15.316Z,34.78
2019-02-17T16:40:19.175Z,32.50
2019-02-17T16:45:23.350Z,35.30
2019-02-17T16:50:27.223Z,32.67
2019-02-17T16:55:31.305Z,37.58
2019-02-17T17:00:35.159Z,33.88
2019-02-17T17:05:39.118Z,37.65
2019-02-17T17:10:43.098Z,38.60
2019-02-17T17:15:47.117Z,39.35
2019-02-17T17:20:51.012Z,37.50
2019-02-17T17:25:54.905Z,35.90
2019-02-17T17:30:59.722Z,36.10
2019-02-17T17:36:03.563Z,33.53
2019-02-17T17:41:07.459Z,35.98
2019-02-17T17:46:11.452Z,38.88
2019-02-17T17:51:15.363Z,36.33
2019-02-17T17:56:19.233Z,40.12
2019-02-17T18:01:23.121Z,41.15
2019-02-17T18:06:27.136Z,38.48
2019-02-17T18:11:31.049Z,40.80
2019-02-17T18:16:34.861Z,42.70
2019-02-17T18:21:38.770Z,39.20
2019-02-17T18:26:42.657Z,37.20
2019-02-17T18:31:46.626Z,37.85
2019-02-17T18:36:50.534Z,37.20
2019-02-17T18:41:54.432Z,38.10
2019-02-17T18:46:58.242Z,37.90
2019-02-17T18:52:02.036Z,35.85
2019-02-17T18:57:08.198Z,35.08
2019-02-17T19:02:11.468Z,38.83
2019-02-17T19:07:15.276Z,37.08
2019-02-17T19:12:19.185Z,37.63
2019-02-17T19:17:23.162Z,37.78
2019-02-17T19:22:27.059Z,40.05
2019-02-17T19:27:30.885Z,37.53
2019-02-17T19:32:34.853Z,38.95
2019-02-17T19:37:38.825Z,37.13
2019-02-17T19:42:42.770Z,42.27
2019-02-17T19:47:46.673Z,40.95
2019-02-17T19:52:50.464Z,37.15
2019-02-17T19:57:54.313Z,38.10
2019-02-17T20:03:25.968Z,39.08
2019-02-17T20:08:29.768Z,42.55
2019-02-17T20:13:33.849Z,38.43
2019-02-17T20:18:37.679Z,36.45
2019-02-17T20:23:41.537Z,38.63
2019-02-17T20:28:45.433Z,36.85
2019-02-17T20:33:49.433Z,39.90
2019-02-17T20:38:53.295Z,34.63
2019-02-17T20:43:57.634Z,28.50
2019-02-17T20:49:01.564Z,31.57
2019-02-17T20:54:05.461Z,31.02
2019-02-17T20:59:09.347Z,21.40
2019-02-17T21:04:13.251Z,26.67
2019-02-17T21:09:17.333Z,22.07
2019-02-17T21:14:21.259Z,21.83
2019-02-17T21:19:25.328Z,16.45
2019-02-17T21:24:29.203Z,18.27
2019-02-17T21:29:33.256Z,18.33
2019-02-17T21:34:37.388Z,15.87
2019-02-17T21:39:41.277Z,16.47
2019-02-17T21:44:45.179Z,13.93
2019-02-17T21:49:49.012Z,15.80
2019-02-17T21:54:53.219Z,15.65
2019-02-17T21:59:57.137Z,15.63
2019-02-17T22:05:02.419Z,14.65
2019-02-17T22:10:07.178Z,14.07
2019-02-17T22:15:12.830Z,22.80
2019-02-17T22:20:16.877Z,11.47
2019-02-17T22:25:20.939Z,13.30
2019-02-17T22:30:24.934Z,11.13
2019-02-17T22:35:28.958Z,13.40
2019-02-17T22:40:32.835Z,11.97
2019-02-17T22:45:36.743Z,13.53
2019-02-17T22:50:40.561Z,12.70
2019-02-17T22:55:45.957Z,14.37
2019-02-17T23:00:59.574Z,12.73
2019-02-17T23:06:03.733Z,13.73
2019-02-17T23:11:07.604Z,11.13
2019-02-17T23:16:11.527Z,15.17
2019-02-17T23:21:15.349Z,12.03
2019-02-17T23:26:20.537Z,14.23
2019-02-17T23:31:24.592Z,14.70
2019-02-17T23:36:28.417Z,14.10
2019-02-17T23:41:32.863Z,15.13
2019-02-17T23:46:36.668Z,13.37
2019-02-17T23:51:40.549Z,14.10
2019-02-17T23:56:44.385Z,12.73
